sensor_id;sensor_type;location;lat;lon;timestamp;pressure;altitude;pressure_sealevel;temperature;humidity
10852;BME280;5479;52.046;6.314;2023-04-27T00:02:13;102013.47;;;3.72;100.00
10852;BME280;5479;52.046;6.314;2023-04-27T00:04:42;102021.53;;;3.57;100.00
10852;BME280;5479;52.046;6.314;2023-04-27T00:07:10;102019.03;;;3.43;100.00
10852;BME280;5479;52.046;6.314;2023-04-27T00:09:38;102018.28;;;3.32;100.00
10852;BME280;5479;52.046;6.314;2023-04-27T00:12:06;102021.03;;;3.20;100.00
10852;BME280;5479;52.046;6.314;2023-04-27T00:14:34;102022.03;;;3.10;100.00
10852;BME280;5479;52.046;6.314;2023-04-27T00:17:02;102026.47;;;3.02;100.00
10852;BME280;5479;52.046;6.314;2023-04-27T00:19:31;102034.38;;;2.93;100.00
10852;BME280;5479;52.046;6.314;2023-04-27T00:22:01;102031.81;;;2.85;100.00
10852;BME280;5479;52.046;6.314;2023-04-27T00:24:29;102032.75;;;2.80;100.00
10852;BME280;5479;52.046;6.314;2023-04-27T00:26:57;102033.69;;;2.70;100.00
10852;BME280;5479;52.046;6.314;2023-04-27T00:29:25;102036.25;;;2.76;100.00
10852;BME280;5479;52.046;6.314;2023-04-27T00:31:53;102043.25;;;2.74;100.00
10852;BME280;5479;52.046;6.314;2023-04-27T00:34:21;102044.13;;;2.74;100.00
10852;BME280;5479;52.046;6.314;2023-04-27T00:36:49;102039.75;;;2.73;100.00
10852;BME280;5479;52.046;6.314;2023-04-27T00:39:18;102041.56;;;2.64;100.00
10852;BME280;5479;52.046;6.314;2023-04-27T00:41:47;102039.81;;;2.66;100.00
10852;BME280;5479;52.046;6.314;2023-04-27T00:44:21;102046.81;;;2.64;100.00
10852;BME280;5479;52.046;6.314;2023-04-27T00:46:50;102039.81;;;2.66;100.00
10852;BME280;5479;52.046;6.314;2023-04-27T00:49:18;102041.59;;;2.58;100.00
10852;BME280;5479;52.046;6.314;2023-04-27T00:51:47;102031.19;;;2.52;100.00
10852;BME280;5479;52.046;6.314;2023-04-27T00:54:19;102042.59;;;2.46;100.00
10852;BME280;5479;52.046;6.314;2023-04-27T00:56:47;102040.88;;;2.37;100.00
10852;BME280;5479;52.046;6.314;2023-04-27T00:59:16;102045.25;;;2.31;100.00
10852;BME280;5479;52.046;6.314;2023-04-27T01:01:45;102039.22;;;2.24;100.00
10852;BME280;5479;52.046;6.314;2023-04-27T01:04:13;102047.06;;;2.21;100.00
10852;BME280;5479;52.046;6.314;2023-04-27T01:06:42;102040.06;;;2.26;100.00
10852;BME280;5479;52.046;6.314;2023-04-27T01:09:10;102040.03;;;2.32;100.00
10852;BME280;5479;52.046;6.314;2023-04-27T01:11:40;102041.81;;;2.29;100.00
10852;BME280;5479;52.046;6.314;2023-04-27T01:14:08;102047.00;;;2.30;100.00
10852;BME280;5479;52.046;6.314;2023-04-27T01:16:36;102040.09;;;2.23;100.00
10852;BME280;5479;52.046;6.314;2023-04-27T01:19:06;102047.97;;;2.16;100.00
10852;BME280;5479;52.046;6.314;2023-04-27T01:21:34;102048.88;;;2.07;100.00
10852;BME280;5479;52.046;6.314;2023-04-27T01:24:05;102053.22;;;2.07;100.00
10852;BME280;5479;52.046;6.314;2023-04-27T01:26:33;102049.78;;;2.02;100.00
10852;BME280;5479;52.046;6.314;2023-04-27T01:29:01;102042.81;;;1.99;100.00
10852;BME280;5479;52.046;6.314;2023-04-27T01:31:29;102038.50;;;1.94;100.00
10852;BME280;5479;52.046;6.314;2023-04-27T01:33:57;102047.22;;;1.90;100.00
10852;BME280;5479;52.046;6.314;2023-04-27T01:36:25;102037.66;;;1.84;100.00
10852;BME280;5479;52.046;6.314;2023-04-27T01:38:54;102034.19;;;1.80;100.00
10852;BME280;5479;52.046;6.314;2023-04-27T01:41:23;102039.41;;;1.87;100.00
10852;BME280;5479;52.046;6.314;2023-04-27T01:43:51;102035.84;;;1.98;100.00
10852;BME280;5479;52.046;6.314;2023-04-27T01:46:19;102043.69;;;2.00;100.00
10852;BME280;5479;52.046;6.314;2023-04-27T01:48:47;102036.72;;;2.02;100.00
10852;BME280;5479;52.046;6.314;2023-04-27T01:51:15;102037.56;;;2.01;100.00
10852;BME280;5479;52.046;6.314;2023-04-27T01:53:43;102035.00;;;1.98;100.00
10852;BME280;5479;52.046;6.314;2023-04-27T01:56:11;102039.38;;;1.85;100.00
10852;BME280;5479;52.046;6.314;2023-04-27T01:58:40;102044.66;;;1.76;100.00
10852;BME280;5479;52.046;6.314;2023-04-27T02:01:08;102039.47;;;1.67;100.00
10852;BME280;5479;52.046;6.314;2023-04-27T02:03:37;102038.63;;;1.60;100.00
10852;BME280;5479;52.046;6.314;2023-04-27T02:06:05;102044.72;;;1.56;100.00
10852;BME280;5479;52.046;6.314;2023-04-27T02:08:34;102040.38;;;1.51;100.00
10852;BME280;5479;52.046;6.314;2023-04-27T02:11:02;102043.88;;;1.47;100.00
10852;BME280;5479;52.046;6.314;2023-04-27T02:13:29;102039.53;;;1.44;100.00
10852;BME280;5479;52.046;6.314;2023-04-27T02:15:59;102035.16;;;1.46;100.00
10852;BME280;5479;52.046;6.314;2023-04-27T02:18:28;102036.03;;;1.45;100.00
10852;BME280;5479;52.046;6.314;2023-04-27T02:20:58;102043.88;;;1.38;100.00
10852;BME280;5479;52.046;6.314;2023-04-27T02:23:26;102029.97;;;1.30;100.00
10852;BME280;5479;52.046;6.314;2023-04-27T02:25:54;102044.78;;;1.28;100.00
10852;BME280;5479;52.046;6.314;2023-04-27T02:28:22;102034.31;;;1.26;100.00
10852;BME280;5479;52.046;6.314;2023-04-27T02:30:49;102030.00;;;1.28;100.00
10852;BME280;5479;52.046;6.314;2023-04-27T02:33:19;102029.13;;;1.23;100.00
10852;BME280;5479;52.046;6.314;2023-04-27T02:35:47;102040.44;;;1.17;100.00
10852;BME280;5479;52.046;6.314;2023-04-27T02:38:15;102033.47;;;1.13;100.00
10852;BME280;5479;52.046;6.314;2023-04-27T02:40:45;102028.28;;;1.15;100.00
10852;BME280;5479;52.046;6.314;2023-04-27T02:43:15;102026.50;;;1.15;100.00
10852;BME280;5479;52.046;6.314;2023-04-27T02:45:43;102033.47;;;1.19;100.00
10852;BME280;5479;52.046;6.314;2023-04-27T02:48:12;102029.97;;;1.27;100.00
10852;BME280;5479;52.046;6.314;2023-04-27T02:50:41;102028.25;;;1.27;100.00
10852;BME280;5479;52.046;6.314;2023-04-27T02:53:14;102032.59;;;1.28;100.00
10852;BME280;5479;52.046;6.314;2023-04-27T02:55:44;102042.13;;;1.37;100.00
10852;BME280;5479;52.046;6.314;2023-04-27T02:58:13;102035.19;;;1.39;100.00
10852;BME280;5479;52.046;6.314;2023-04-27T03:00:42;102036.91;;;1.37;100.00
10852;BME280;5479;52.046;6.314;2023-04-27T03:03:10;102026.50;;;1.25;100.00
10852;BME280;5479;52.046;6.314;2023-04-27T03:05:38;102035.19;;;1.20;100.00
10852;BME280;5479;52.046;6.314;2023-04-27T03:08:13;102024.75;;;1.27;100.00
10852;BME280;5479;52.046;6.314;2023-04-27T03:10:41;102017.81;;;1.27;100.00
10852;BME280;5479;52.046;6.314;2023-04-27T03:13:09;102028.25;;;1.19;100.00
10852;BME280;5479;52.046;6.314;2023-04-27T03:15:37;102021.31;;;1.06;100.00
10852;BME280;5479;52.046;6.314;2023-04-27T03:18:04;102024.81;;;0.96;100.00
10852;BME280;5479;52.046;6.314;2023-04-27T03:20:32;102034.38;;;0.93;100.00
10852;BME280;5479;52.046;6.314;2023-04-27T03:23:01;102035.25;;;0.93;100.00
10852;BME280;5479;52.046;6.314;2023-04-27T03:25:30;102037.88;;;0.83;100.00
10852;BME280;5479;52.046;6.314;2023-04-27T03:27:58;102036.97;;;0.76;100.00
10852;BME280;5479;52.046;6.314;2023-04-27T03:30:26;102045.69;;;0.72;100.00
10852;BME280;5479;52.046;6.314;2023-04-27T03:32:54;102047.41;;;0.79;100.00
10852;BME280;5479;52.046;6.314;2023-04-27T03:35:21;102047.41;;;0.76;100.00
10852;BME280;5479;52.046;6.314;2023-04-27T03:37:49;102043.94;;;0.82;100.00
10852;BME280;5479;52.046;6.314;2023-04-27T03:40:17;102041.31;;;0.79;100.00
10852;BME280;5479;52.046;6.314;2023-04-27T03:42:47;102040.44;;;0.75;100.00
10852;BME280;5479;52.046;6.314;2023-04-27T03:45:15;102035.25;;;0.66;100.00
10852;BME280;5479;52.046;6.314;2023-04-27T03:47:44;102044.81;;;0.64;100.00
10852;BME280;5479;52.046;6.314;2023-04-27T03:50:12;102042.19;;;0.58;100.00
10852;BME280;5479;52.046;6.314;2023-04-27T03:52:40;102052.59;;;0.52;100.00
10852;BME280;5479;52.046;6.314;2023-04-27T03:55:11;102054.34;;;0.56;100.00
10852;BME280;5479;52.046;6.314;2023-04-27T03:57:40;102060.41;;;0.55;100.00
10852;BME280;5479;52.046;6.314;2023-04-27T04:00:10;102052.59;;;0.55;100.00
10852;BME280;5479;52.046;6.314;2023-04-27T04:02:40;102060.41;;;0.55;100.00
10852;BME280;5479;52.046;6.314;2023-04-27T04:05:08;102066.50;;;0.49;100.00
10852;BME280;5479;52.046;6.314;2023-04-27T04:07:36;102071.72;;;0.57;100.00
10852;BME280;5479;52.046;6.314;2023-04-27T04:10:07;102066.50;;;0.57;100.00
10852;BME280;5479;52.046;6.314;2023-04-27T04:12:36;102067.38;;;0.64;100.00
10852;BME280;5479;52.046;6.314;2023-04-27T04:15:05;102074.34;;;0.63;100.00
10852;BME280;5479;52.046;6.314;2023-04-27T04:17:34;102073.47;;;0.61;100.00
10852;BME280;5479;52.046;6.314;2023-04-27T04:20:02;102079.53;;;0.55;100.00
10852;BME280;5479;52.046;6.314;2023-04-27T04:22:36;102068.22;;;0.46;100.00
10852;BME280;5479;52.046;6.314;2023-04-27T04:25:06;102065.63;;;0.47;100.00
10852;BME280;5479;52.046;6.314;2023-04-27T04:27:34;102069.97;;;0.47;100.00
10852;BME280;5479;52.046;6.314;2023-04-27T04:30:04;102070.84;;;0.47;100.00
10852;BME280;5479;52.046;6.314;2023-04-27T04:32:32;102060.41;;;0.47;100.00
10852;BME280;5479;52.046;6.314;2023-04-27T04:35:05;102062.13;;;0.47;100.00
10852;BME280;5479;52.046;6.314;2023-04-27T04:37:33;102057.78;;;0.37;100.00
10852;BME280;5479;52.046;6.314;2023-04-27T04:40:06;102056.88;;;0.27;100.00
10852;BME280;5479;52.046;6.314;2023-04-27T04:42:36;102047.31;;;0.16;100.00
10852;BME280;5479;52.046;6.314;2023-04-27T04:45:05;102059.44;;;0.17;100.00
10852;BME280;5479;52.046;6.314;2023-04-27T04:47:33;102057.72;;;0.17;100.00
10852;BME280;5479;52.046;6.314;2023-04-27T04:50:02;102056.88;;;0.30;100.00
10852;BME280;5479;52.046;6.314;2023-04-27T04:52:31;102071.69;;;0.39;100.00
10852;BME280;5479;52.046;6.314;2023-04-27T04:54:59;102068.22;;;0.44;100.00
10852;BME280;5479;52.046;6.314;2023-04-27T04:57:27;102067.34;;;0.51;100.00
10852;BME280;5479;52.046;6.314;2023-04-27T04:59:55;102067.38;;;0.68;100.00
10852;BME280;5479;52.046;6.314;2023-04-27T05:02:24;102057.84;;;0.64;100.00
10852;BME280;5479;52.046;6.314;2023-04-27T05:04:52;102061.25;;;0.51;100.00
10852;BME280;5479;52.046;6.314;2023-04-27T05:07:22;102060.44;;;0.53;100.00
10852;BME280;5479;52.046;6.314;2023-04-27T05:09:51;102061.28;;;0.60;100.00
10852;BME280;5479;52.046;6.314;2023-04-27T05:12:19;102071.75;;;0.69;100.00
10852;BME280;5479;52.046;6.314;2023-04-27T05:14:47;102063.94;;;0.80;100.00
10852;BME280;5479;52.046;6.314;2023-04-27T05:17:15;102076.97;;;0.96;100.00
10852;BME280;5479;52.046;6.314;2023-04-27T05:19:43;102076.09;;;1.11;100.00
10852;BME280;5479;52.046;6.314;2023-04-27T05:22:11;102075.22;;;1.19;100.00
10852;BME280;5479;52.046;6.314;2023-04-27T05:24:39;102071.75;;;1.30;100.00
10852;BME280;5479;52.046;6.314;2023-04-27T05:27:08;102086.53;;;1.44;100.00
10852;BME280;5479;52.046;6.314;2023-04-27T05:29:36;102076.91;;;1.54;100.00
10852;BME280;5479;52.046;6.314;2023-04-27T05:32:04;102087.31;;;1.66;100.00
10852;BME280;5479;52.046;6.314;2023-04-27T05:34:32;102081.19;;;1.80;100.00
10852;BME280;5479;52.046;6.314;2023-04-27T05:37:00;102088.13;;;1.92;100.00
10852;BME280;5479;52.046;6.314;2023-04-27T05:39:28;102082.88;;;1.98;100.00
10852;BME280;5479;52.046;6.314;2023-04-27T05:41:57;102073.25;;;2.09;100.00
10852;BME280;5479;52.046;6.314;2023-04-27T05:44:28;102080.22;;;2.16;100.00
10852;BME280;5479;52.046;6.314;2023-04-27T05:46:56;102079.22;;;2.35;100.00
10852;BME280;5479;52.046;6.314;2023-04-27T05:49:24;102074.78;;;2.50;100.00
10852;BME280;5479;52.046;6.314;2023-04-27T05:51:52;102079.94;;;2.63;100.00
10852;BME280;5479;52.046;6.314;2023-04-27T05:54:20;102085.06;;;2.80;100.00
10852;BME280;5479;52.046;6.314;2023-04-27T05:56:48;102079.72;;;2.92;100.00
10852;BME280;5479;52.046;6.314;2023-04-27T05:59:16;102085.75;;;3.00;100.00
10852;BME280;5479;52.046;6.314;2023-04-27T06:01:46;102081.31;;;3.11;100.00
10852;BME280;5479;52.046;6.314;2023-04-27T06:04:14;102088.97;;;3.32;100.00
10852;BME280;5479;52.046;6.314;2023-04-27T06:06:42;102083.59;;;3.49;100.00
10852;BME280;5479;52.046;6.314;2023-04-27T06:09:11;102080.00;;;3.60;100.00
10852;BME280;5479;52.046;6.314;2023-04-27T06:11:40;102080.84;;;3.62;100.00
10852;BME280;5479;52.046;6.314;2023-04-27T06:14:07;102084.19;;;3.77;100.00
10852;BME280;5479;52.046;6.314;2023-04-27T06:16:35;102077.91;;;3.90;100.00
10852;BME280;5479;52.046;6.314;2023-04-27T06:19:05;102074.22;;;4.06;100.00
10852;BME280;5479;52.046;6.314;2023-04-27T06:21:33;102067.00;;;4.24;100.00
10852;BME280;5479;52.046;6.314;2023-04-27T06:24:02;102070.16;;;4.48;100.00
10852;BME280;5479;52.046;6.314;2023-04-27T06:26:30;102070.91;;;4.56;100.00
10852;BME280;5479;52.046;6.314;2023-04-27T06:28:59;102065.44;;;4.72;100.00
10852;BME280;5479;52.046;6.314;2023-04-27T06:31:29;102073.84;;;4.93;100.00
10852;BME280;5479;52.046;6.314;2023-04-27T06:33:57;102069.28;;;5.05;100.00
10852;BME280;5479;52.046;6.314;2023-04-27T06:36:26;102072.44;;;5.27;100.00
10852;BME280;5479;52.046;6.314;2023-04-27T06:38:54;102065.88;;;5.49;100.00
10852;BME280;5479;52.046;6.314;2023-04-27T06:41:22;102073.16;;;5.81;100.00
10852;BME280;5479;52.046;6.314;2023-04-27T06:43:51;102071.00;;;6.44;100.00
10852;BME280;5479;52.046;6.314;2023-04-27T06:46:19;102065.06;;;7.75;100.00
10852;BME280;5479;52.046;6.314;2023-04-27T06:48:47;102069.19;;;8.45;100.00
10852;BME280;5479;52.046;6.314;2023-04-27T06:51:15;102065.63;;;9.02;100.00
10852;BME280;5479;52.046;6.314;2023-04-27T06:53:47;102063.97;;;9.50;97.05
10852;BME280;5479;52.046;6.314;2023-04-27T06:56:16;102070.78;;;9.57;93.17
10852;BME280;5479;52.046;6.314;2023-04-27T06:58:44;102065.13;;;9.68;91.57
10852;BME280;5479;52.046;6.314;2023-04-27T07:01:12;102057.69;;;10.02;86.69
10852;BME280;5479;52.046;6.314;2023-04-27T07:03:42;102052.94;;;10.78;79.47
10852;BME280;5479;52.046;6.314;2023-04-27T07:06:10;102053.72;;;12.60;71.79
10852;BME280;5479;52.046;6.314;2023-04-27T07:08:37;102044.09;;;13.29;64.39
10852;BME280;5479;52.046;6.314;2023-04-27T07:11:07;102037.94;;;13.79;57.17
10852;BME280;5479;52.046;6.314;2023-04-27T07:13:35;102048.72;;;11.58;65.84
10852;BME280;5479;52.046;6.314;2023-04-27T07:16:04;102052.13;;;12.00;68.23
10852;BME280;5479;52.046;6.314;2023-04-27T07:18:32;102054.81;;;12.38;63.63
10852;BME280;5479;52.046;6.314;2023-04-27T07:20:59;102045.38;;;12.68;61.52
10852;BME280;5479;52.046;6.314;2023-04-27T07:23:27;102053.75;;;12.96;59.23
10852;BME280;5479;52.046;6.314;2023-04-27T07:25:56;102041.97;;;14.36;55.67
10852;BME280;5479;52.046;6.314;2023-04-27T07:28:27;102054.31;;;14.99;53.15
10852;BME280;5479;52.046;6.314;2023-04-27T07:30:54;102055.38;;;13.69;54.13
10852;BME280;5479;52.046;6.314;2023-04-27T07:33:24;102053.97;;;13.45;55.63
10852;BME280;5479;52.046;6.314;2023-04-27T07:35:52;102059.47;;;12.70;56.22
10852;BME280;5479;52.046;6.314;2023-04-27T07:38:20;102066.34;;;11.99;60.38
10852;BME280;5479;52.046;6.314;2023-04-27T07:40:48;102071.44;;;12.23;57.63
10852;BME280;5479;52.046;6.314;2023-04-27T07:43:18;102071.41;;;12.43;56.03
10852;BME280;5479;52.046;6.314;2023-04-27T07:45:47;102077.50;;;13.18;55.66
10852;BME280;5479;52.046;6.314;2023-04-27T07:48:15;102079.16;;;12.47;56.42
10852;BME280;5479;52.046;6.314;2023-04-27T07:50:44;102072.19;;;12.63;57.35
10852;BME280;5479;52.046;6.314;2023-04-27T07:53:13;102068.59;;;13.53;53.44
10852;BME280;5479;52.046;6.314;2023-04-27T07:55:41;102066.06;;;14.66;52.19
10852;BME280;5479;52.046;6.314;2023-04-27T07:58:10;102071.06;;;15.17;49.95
10852;BME280;5479;52.046;6.314;2023-04-27T08:00:38;102068.94;;;15.08;49.38
10852;BME280;5479;52.046;6.314;2023-04-27T08:03:07;102061.72;;;15.84;48.72
10852;BME280;5479;52.046;6.314;2023-04-27T08:05:35;102071.56;;;13.64;50.97
10852;BME280;5479;52.046;6.314;2023-04-27T08:08:04;102061.47;;;13.71;52.47
10852;BME280;5479;52.046;6.314;2023-04-27T08:10:33;102067.94;;;14.48;49.64
10852;BME280;5479;52.046;6.314;2023-04-27T08:13:03;102064.47;;;15.38;46.31
10852;BME280;5479;52.046;6.314;2023-04-27T08:15:35;102066.00;;;15.42;43.96
10852;BME280;5479;52.046;6.314;2023-04-27T08:18:03;102059.34;;;14.59;46.89
10852;BME280;5479;52.046;6.314;2023-04-27T08:20:32;102060.63;;;14.36;46.46
10852;BME280;5479;52.046;6.314;2023-04-27T08:23:00;102059.31;;;15.35;45.40
10852;BME280;5479;52.046;6.314;2023-04-27T08:25:28;102062.25;;;13.56;46.24
10852;BME280;5479;52.046;6.314;2023-04-27T08:27:56;102068.34;;;13.41;44.22
10852;BME280;5479;52.046;6.314;2023-04-27T08:30:24;102063.50;;;13.32;46.60
10852;BME280;5479;52.046;6.314;2023-04-27T08:32:52;102066.88;;;14.02;45.70
10852;BME280;5479;52.046;6.314;2023-04-27T08:35:20;102053.56;;;14.35;44.10
10852;BME280;5479;52.046;6.314;2023-04-27T08:37:49;102055.69;;;14.28;44.47
10852;BME280;5479;52.046;6.314;2023-04-27T08:40:18;102047.47;;;14.64;44.57
10852;BME280;5479;52.046;6.314;2023-04-27T08:42:53;102054.38;;;16.29;41.51
10852;BME280;5479;52.046;6.314;2023-04-27T08:45:22;102055.94;;;15.02;42.45
10852;BME280;5479;52.046;6.314;2023-04-27T08:47:51;102052.16;;;15.65;43.88
10852;BME280;5479;52.046;6.314;2023-04-27T08:50:19;102045.94;;;15.21;42.08
10852;BME280;5479;52.046;6.314;2023-04-27T08:52:50;102045.78;;;17.33;40.02
10852;BME280;5479;52.046;6.314;2023-04-27T08:55:19;102043.59;;;16.45;38.11
10852;BME280;5479;52.046;6.314;2023-04-27T08:57:54;102042.66;;;15.76;42.43
10852;BME280;5479;52.046;6.314;2023-04-27T09:00:23;102045.13;;;14.58;44.66
10852;BME280;5479;52.046;6.314;2023-04-27T09:02:51;102042.06;;;15.70;40.91
10852;BME280;5479;52.046;6.314;2023-04-27T09:05:21;102040.25;;;16.42;39.74
10852;BME280;5479;52.046;6.314;2023-04-27T09:08:01;102032.47;;;15.96;43.02
10852;BME280;5479;52.046;6.314;2023-04-27T09:10:42;102028.06;;;15.07;43.00
10852;BME280;5479;52.046;6.314;2023-04-27T09:13:11;102039.16;;;14.55;43.56
10852;BME280;5479;52.046;6.314;2023-04-27T09:15:44;102048.13;;;13.88;44.03
10852;BME280;5479;52.046;6.314;2023-04-27T09:18:14;102039.03;;;14.72;43.09
10852;BME280;5479;52.046;6.314;2023-04-27T09:20:43;102037.31;;;14.39;44.26
10852;BME280;5479;52.046;6.314;2023-04-27T09:23:24;102039.38;;;15.56;41.14
10852;BME280;5479;52.046;6.314;2023-04-27T09:25:53;102039.31;;;14.52;43.13
10852;BME280;5479;52.046;6.314;2023-04-27T09:28:23;102043.94;;;14.32;43.96
10852;BME280;5479;52.046;6.314;2023-04-27T09:30:52;102037.50;;;14.52;44.50
10852;BME280;5479;52.046;6.314;2023-04-27T09:33:22;102033.66;;;16.33;40.27
10852;BME280;5479;52.046;6.314;2023-04-27T09:35:51;102035.94;;;16.53;38.69
10852;BME280;5479;52.046;6.314;2023-04-27T09:38:20;102029.84;;;17.44;37.20
10852;BME280;5479;52.046;6.314;2023-04-27T09:40:50;102030.97;;;16.88;35.69
10852;BME280;5479;52.046;6.314;2023-04-27T09:43:18;102033.59;;;16.75;37.04
10852;BME280;5479;52.046;6.314;2023-04-27T09:45:47;102017.13;;;17.85;37.50
10852;BME280;5479;52.046;6.314;2023-04-27T09:48:16;102022.50;;;17.85;34.30
10852;BME280;5479;52.046;6.314;2023-04-27T09:50:45;102021.50;;;17.48;35.88
10852;BME280;5479;52.046;6.314;2023-04-27T09:53:14;102012.66;;;18.35;36.66
10852;BME280;5479;52.046;6.314;2023-04-27T09:55:49;102009.19;;;18.58;35.02
10852;BME280;5479;52.046;6.314;2023-04-27T09:58:44;102011.94;;;17.32;37.24
10852;BME280;5479;52.046;6.314;2023-04-27T10:01:22;102005.41;;;18.24;36.77
10852;BME280;5479;52.046;6.314;2023-04-27T10:04:01;102004.34;;;17.51;37.42
10852;BME280;5479;52.046;6.314;2023-04-27T10:07:00;102009.47;;;16.89;36.06
10852;BME280;5479;52.046;6.314;2023-04-27T10:09:34;102000.66;;;17.14;35.16
10852;BME280;5479;52.046;6.314;2023-04-27T10:12:18;102014.38;;;16.28;36.25
10852;BME280;5479;52.046;6.314;2023-04-27T10:14:51;102010.03;;;16.13;35.64
10852;BME280;5479;52.046;6.314;2023-04-27T10:17:24;102014.16;;;15.46;38.70
10852;BME280;5479;52.046;6.314;2023-04-27T10:19:55;102009.25;;;15.25;39.36
10852;BME280;5479;52.046;6.314;2023-04-27T10:22:35;102012.63;;;14.83;39.02
10852;BME280;5479;52.046;6.314;2023-04-27T10:25:12;102009.44;;;14.61;39.38
10852;BME280;5479;52.046;6.314;2023-04-27T10:27:47;102003.09;;;13.99;39.80
10852;BME280;5479;52.046;6.314;2023-04-27T10:30:18;101995.47;;;13.93;40.12
10852;BME280;5479;52.046;6.314;2023-04-27T10:32:50;102000.41;;;14.16;40.21
10852;BME280;5479;52.046;6.314;2023-04-27T10:35:19;101991.50;;;14.94;39.30
10852;BME280;5479;52.046;6.314;2023-04-27T10:37:48;101994.00;;;15.56;38.02
10852;BME280;5479;52.046;6.314;2023-04-27T10:40:17;102003.53;;;14.71;38.76
10852;BME280;5479;52.046;6.314;2023-04-27T10:42:49;102003.25;;;15.79;37.93
10852;BME280;5479;52.046;6.314;2023-04-27T10:45:26;101998.88;;;15.78;37.05
10852;BME280;5479;52.046;6.314;2023-04-27T10:47:57;102000.09;;;17.61;35.40
10852;BME280;5479;52.046;6.314;2023-04-27T10:50:29;101992.13;;;18.46;31.33
10852;BME280;5479;52.046;6.314;2023-04-27T10:53:02;101990.00;;;19.34;32.11
10852;BME280;5479;52.046;6.314;2023-04-27T10:55:33;101983.38;;;19.83;31.46
10852;BME280;5479;52.046;6.314;2023-04-27T10:58:03;101984.47;;;20.14;30.86
10852;BME280;5479;52.046;6.314;2023-04-27T11:00:32;101976.44;;;19.35;31.70
10852;BME280;5479;52.046;6.314;2023-04-27T11:03:12;101979.94;;;17.93;34.40
10852;BME280;5479;52.046;6.314;2023-04-27T11:05:42;101987.09;;;17.42;36.67
10852;BME280;5479;52.046;6.314;2023-04-27T11:08:12;101986.47;;;16.46;36.35
10852;BME280;5479;52.046;6.314;2023-04-27T11:10:43;101976.50;;;16.21;36.90
10852;BME280;5479;52.046;6.314;2023-04-27T11:13:15;101975.97;;;16.97;34.78
10852;BME280;5479;52.046;6.314;2023-04-27T11:15:46;101976.53;;;16.48;36.29
10852;BME280;5479;52.046;6.314;2023-04-27T11:18:14;101973.06;;;16.74;36.68
10852;BME280;5479;52.046;6.314;2023-04-27T11:20:45;101961.53;;;18.61;34.22
10852;BME280;5479;52.046;6.314;2023-04-27T11:23:22;101955.28;;;19.76;32.31
10852;BME280;5479;52.046;6.314;2023-04-27T11:25:51;101959.13;;;18.70;31.74
10852;BME280;5479;52.046;6.314;2023-04-27T11:28:21;101969.91;;;16.68;34.09
10852;BME280;5479;52.046;6.314;2023-04-27T11:30:55;101968.09;;;16.13;35.54
10852;BME280;5479;52.046;6.314;2023-04-27T11:33:25;101967.41;;;16.24;36.54
10852;BME280;5479;52.046;6.314;2023-04-27T11:35:53;101964.06;;;15.51;36.97
10852;BME280;5479;52.046;6.314;2023-04-27T11:38:22;101957.75;;;15.52;38.06
10852;BME280;5479;52.046;6.314;2023-04-27T11:40:58;101955.56;;;17.21;36.47
10852;BME280;5479;52.046;6.314;2023-04-27T11:43:28;101947.78;;;17.30;34.99
10852;BME280;5479;52.046;6.314;2023-04-27T11:46:00;101938.94;;;18.53;34.60
10852;BME280;5479;52.046;6.314;2023-04-27T11:48:29;101932.41;;;18.68;33.80
10852;BME280;5479;52.046;6.314;2023-04-27T11:50:57;101938.91;;;16.78;34.90
10852;BME280;5479;52.046;6.314;2023-04-27T11:53:31;101947.59;;;16.14;36.93
10852;BME280;5479;52.046;6.314;2023-04-27T11:56:00;101939.38;;;16.58;36.10
10852;BME280;5479;52.046;6.314;2023-04-27T11:58:32;101940.50;;;16.27;33.87
10852;BME280;5479;52.046;6.314;2023-04-27T12:01:00;101934.47;;;15.54;35.72
10852;BME280;5479;52.046;6.314;2023-04-27T12:03:28;101945.72;;;15.74;36.77
10852;BME280;5479;52.046;6.314;2023-04-27T12:05:57;101941.69;;;15.95;35.95
10852;BME280;5479;52.046;6.314;2023-04-27T12:08:25;101945.25;;;15.09;35.99
10852;BME280;5479;52.046;6.314;2023-04-27T12:10:53;101946.66;;;16.01;35.10
10852;BME280;5479;52.046;6.314;2023-04-27T12:13:22;101938.28;;;16.34;34.42
10852;BME280;5479;52.046;6.314;2023-04-27T12:15:51;101934.66;;;15.94;35.48
10852;BME280;5479;52.046;6.314;2023-04-27T12:18:19;101941.03;;;16.32;36.86
10852;BME280;5479;52.046;6.314;2023-04-27T12:20:47;101934.28;;;16.67;35.35
10852;BME280;5479;52.046;6.314;2023-04-27T12:23:15;101924.84;;;17.26;35.91
10852;BME280;5479;52.046;6.314;2023-04-27T12:25:43;101927.56;;;16.74;35.80
10852;BME280;5479;52.046;6.314;2023-04-27T12:28:11;101919.72;;;17.61;34.80
10852;BME280;5479;52.046;6.314;2023-04-27T12:30:44;101917.41;;;18.05;33.43
10852;BME280;5479;52.046;6.314;2023-04-27T12:33:15;101906.84;;;16.91;34.36
10852;BME280;5479;52.046;6.314;2023-04-27T12:35:43;101917.44;;;16.12;34.21
10852;BME280;5479;52.046;6.314;2023-04-27T12:38:11;101916.97;;;16.05;33.81
10852;BME280;5479;52.046;6.314;2023-04-27T12:40:39;101922.22;;;16.21;33.84
10852;BME280;5479;52.046;6.314;2023-04-27T12:43:07;101917.88;;;15.78;35.08
10852;BME280;5479;52.046;6.314;2023-04-27T12:45:35;101918.16;;;15.87;34.40
10852;BME280;5479;52.046;6.314;2023-04-27T12:48:04;101916.50;;;15.28;35.27
10852;BME280;5479;52.046;6.314;2023-04-27T12:50:36;101916.06;;;14.92;36.19
10852;BME280;5479;52.046;6.314;2023-04-27T12:53:04;101913.28;;;14.49;37.15
10852;BME280;5479;52.046;6.314;2023-04-27T12:55:32;101909.16;;;14.44;35.92
10852;BME280;5479;52.046;6.314;2023-04-27T12:58:00;101914.00;;;13.73;36.78
10852;BME280;5479;52.046;6.314;2023-04-27T13:00:28;101912.94;;;13.93;36.94
10852;BME280;5479;52.046;6.314;2023-04-27T13:02:56;101909.41;;;14.08;37.69
10852;BME280;5479;52.046;6.314;2023-04-27T13:05:24;101892.91;;;14.33;37.47
10852;BME280;5479;52.046;6.314;2023-04-27T13:07:54;101886.38;;;14.38;38.46
10852;BME280;5479;52.046;6.314;2023-04-27T13:10:22;101886.28;;;14.40;37.76
10852;BME280;5479;52.046;6.314;2023-04-27T13:12:50;101891.59;;;14.24;38.02